Time;durP1;ratioP1;P1;durP2;ratioP2;P2;SDS_P1;SDS_P2;PMS_P1;PMS_P2;Temp;Humidity;BMP_temperature;BMP_pressure;BME280_temperature;BME280_humidity;BME280_pressure;Samples;Min_cycle;Max_cycle;Signal;HPM_P1;HPM_P2
2023/01/07 00:01:01;;;;;;;2.27;2.00;;;2.20;99.90;2.60;97329.00;;;;5033302;28;20475;-65
2023/01/07 00:03:52;;;;;;;2.10;1.23;;;2.10;99.90;2.70;97324.00;;;;5024777;28;20444;-66
2023/01/07 00:06:43;;;;;;;2.60;1.20;;;2.10;99.90;3.00;97336.00;;;;5033237;28;20793;-65
2023/01/07 00:09:32;;;;;;;1.20;1.10;;;2.10;99.90;3.00;97333.00;;;;5031822;28;20431;-64
2023/01/07 00:12:20;;;;;;;2.00;1.43;;;2.20;99.90;3.10;97325.00;;;;5028845;28;20428;-64
2023/01/07 00:15:10;;;;;;;2.80;1.80;;;2.50;99.90;3.10;97328.00;;;;5026037;28;20432;-65
2023/01/07 00:18:00;;;;;;;2.17;1.63;;;2.30;99.90;3.30;97334.00;;;;5031918;28;20463;-65
2023/01/07 00:20:49;;;;;;;5.23;3.00;;;2.10;99.90;3.20;97325.00;;;;5032333;28;20823;-64
2023/01/07 00:23:40;;;;;;;4.17;2.57;;;2.30;99.90;3.50;97334.00;;;;5033388;28;20448;-64
2023/01/07 00:26:32;;;;;;;3.10;2.73;;;2.30;99.90;3.10;97321.00;;;;5032065;28;20428;-65
2023/01/07 00:29:21;;;;;;;2.80;1.90;;;2.30;99.90;2.60;97324.00;;;;5032572;28;20445;-65
2023/01/07 00:32:10;;;;;;;2.03;1.80;;;2.10;99.90;2.20;97328.00;;;;5034828;28;20439;-65
2023/01/07 00:35:00;;;;;;;4.33;2.40;;;1.90;99.90;2.50;97329.00;;;;5032399;28;20487;-65
2023/01/07 00:37:52;;;;;;;5.70;2.27;;;2.00;99.90;2.50;97326.00;;;;5031764;28;20482;-64
2023/01/07 00:40:40;;;;;;;4.07;2.67;;;1.60;99.90;2.50;97323.00;;;;5032531;28;20456;-64
2023/01/07 00:43:30;;;;;;;3.67;2.43;;;1.70;99.90;2.40;97332.00;;;;5030282;28;20452;-65
2023/01/07 00:46:19;;;;;;;1.77;1.67;;;1.70;99.90;2.30;97325.00;;;;5031407;28;20424;-63
2023/01/07 00:49:08;;;;;;;4.43;1.50;;;1.80;99.90;2.40;97329.00;;;;5032042;28;20429;-65
2023/01/07 00:51:58;;;;;;;2.80;2.07;;;1.70;99.90;2.60;97335.00;;;;5032298;28;20423;-64
2023/01/07 00:54:47;;;;;;;5.43;2.53;;;1.50;99.90;2.70;97330.00;;;;5030580;28;20982;-65
2023/01/07 00:57:35;;;;;;;2.20;2.00;;;1.60;99.90;2.80;97331.00;;;;5029174;28;20471;-64
2023/01/07 01:00:26;;;;;;;4.20;2.33;;;1.70;99.90;2.90;97339.00;;;;5025044;28;21056;-65
2023/01/07 01:03:15;;;;;;;3.90;2.50;;;1.90;99.90;3.10;97332.00;;;;5031606;28;20875;-64
2023/01/07 01:06:06;;;;;;;2.97;2.10;;;1.70;99.90;3.00;97347.00;;;;5027748;28;20428;-65
2023/01/07 01:08:56;;;;;;;3.23;2.37;;;1.80;99.90;2.70;97339.00;;;;5027065;28;20448;-65
2023/01/07 01:11:45;;;;;;;6.17;3.00;;;2.00;99.90;2.60;97355.00;;;;5030710;28;20444;-64
2023/01/07 01:14:34;;;;;;;5.13;2.63;;;1.80;99.90;2.40;97346.00;;;;5020121;28;20498;-64
2023/01/07 01:17:23;;;;;;;5.43;2.87;;;1.70;99.90;2.30;97356.00;;;;5030514;28;20443;-64
2023/01/07 01:20:14;;;;;;;10.53;1.40;;;1.60;99.90;1.80;97351.00;;;;5031246;28;20464;-63
2023/01/07 01:23:03;;;;;;;1.80;1.70;;;1.50;99.90;1.60;97344.00;;;;5031912;28;20455;-66
2023/01/07 01:25:53;;;;;;;4.37;2.03;;;1.30;99.90;1.80;97349.00;;;;5030973;28;20462;-64
2023/01/07 01:28:43;;;;;;;4.23;2.30;;;1.30;99.90;2.10;97360.00;;;;5031870;28;20876;-65
2023/01/07 01:31:32;;;;;;;1.60;1.50;;;1.10;99.90;2.20;97358.00;;;;5040684;28;20432;-65
2023/01/07 01:34:21;;;;;;;3.87;2.60;;;1.30;99.90;2.20;97359.00;;;;5020957;28;20448;-66
2023/01/07 01:37:09;;;;;;;5.63;3.40;;;1.30;99.90;2.40;97359.00;;;;5030902;28;20424;-67
2023/01/07 01:40:02;;;;;;;9.03;3.23;;;1.40;99.90;2.60;97358.00;;;;5030614;28;20507;-66
2023/01/07 01:42:52;;;;;;;2.63;2.33;;;1.50;99.90;2.60;97365.00;;;;5031480;28;20917;-65
2023/01/07 01:45:41;;;;;;;6.43;3.97;;;1.50;99.90;2.80;97360.00;;;;5031049;28;20424;-65
2023/01/07 01:48:31;;;;;;;3.50;2.30;;;1.40;99.90;2.90;97374.00;;;;5030434;28;20424;-63
2023/01/07 01:51:24;;;;;;;10.17;2.67;;;1.70;99.90;3.10;97366.00;;;;5030125;28;20428;-64
2023/01/07 01:54:17;;;;;;;2.57;1.73;;;1.90;99.90;2.60;97363.00;;;;5031535;28;20487;-64
2023/01/07 01:57:07;;;;;;;3.13;2.20;;;1.80;99.90;2.40;97360.00;;;;5020606;28;20494;-64
2023/01/07 01:59:59;;;;;;;2.03;1.43;;;1.60;99.90;1.90;97356.00;;;;5030867;28;20432;-63
2023/01/07 02:02:58;;;;;;;1.93;1.53;;;1.40;99.90;2.20;97359.00;;;;5031148;28;20480;-65
2023/01/07 02:05:47;;;;;;;3.57;1.60;;;1.40;99.90;2.40;97366.00;;;;5030640;28;20428;-64
2023/01/07 02:08:35;;;;;;;1.50;1.40;;;1.60;99.90;2.50;97359.00;;;;5030215;28;20928;-65
2023/01/07 02:11:37;;;;;;;1.83;1.70;;;1.50;99.90;2.40;97359.00;;;;5019782;28;20775;-64
2023/01/07 02:14:46;;;;;;;4.97;1.73;;;1.60;99.90;2.30;97364.00;;;;5029728;28;20479;-65
2023/01/07 02:17:50;;;;;;;1.63;1.53;;;1.60;99.90;1.70;97355.00;;;;5029567;28;20440;-65
2023/01/07 02:20:51;;;;;;;1.47;1.37;;;1.90;99.90;1.50;97344.00;;;;5030709;28;20504;-65
2023/01/07 02:24:24;;;;;;;1.90;1.80;;;1.20;99.90;1.60;97348.00;;;;5030740;28;20967;-65
2023/01/07 02:27:30;;;;;;;1.53;1.23;;;1.10;99.90;1.80;97349.00;;;;5029495;28;21364;-65
2023/01/07 02:30:46;;;;;;;2.33;1.73;;;1.00;99.90;2.20;97356.00;;;;5030030;28;20431;-65
2023/01/07 02:33:50;;;;;;;2.30;1.10;;;1.10;99.90;2.00;97357.00;;;;5027926;28;20451;-65
2023/01/07 02:36:50;;;;;;;2.63;1.70;;;1.20;99.90;1.80;97344.00;;;;5030476;28;20420;-65
2023/01/07 02:39:51;;;;;;;1.73;1.57;;;0.90;99.90;2.20;97358.00;;;;5029788;28;20494;-65
2023/01/07 02:42:54;;;;;;;1.17;1.17;;;1.10;99.90;2.00;97347.00;;;;5029574;28;20420;-65
2023/01/07 02:45:50;;;;;;;2.10;1.90;;;1.40;99.90;2.20;97355.00;;;;5030764;28;20424;-65
2023/01/07 02:48:41;;;;;;;1.57;1.47;;;1.30;99.90;2.00;97344.00;;;;5030325;28;20431;-68
2023/01/07 02:51:34;;;;;;;2.47;1.13;;;1.20;99.90;1.80;97343.00;;;;5030290;28;20428;-69
2023/01/07 02:54:27;;;;;;;2.67;1.03;;;1.30;99.90;1.50;97349.00;;;;5029524;28;20448;-65
2023/01/07 02:57:44;;;;;;;1.20;1.10;;;1.10;99.90;1.80;97354.00;;;;5029740;28;20423;-66
2023/01/07 03:00:58;;;;;;;1.33;1.20;;;1.10;99.90;2.00;97355.00;;;;5029753;28;20472;-66
2023/01/07 03:04:09;;;;;;;1.30;1.23;;;1.10;99.90;2.10;97354.00;;;;5030221;28;20505;-66
2023/01/07 03:07:19;;;;;;;1.67;1.53;;;1.20;99.90;2.30;97362.00;;;;5024817;28;20421;-66
2023/01/07 03:10:21;;;;;;;2.00;1.70;;;1.10;99.90;2.50;97366.00;;;;5026155;28;20943;-66
2023/01/07 03:13:17;;;;;;;8.67;1.33;;;1.30;99.90;2.60;97354.00;;;;5024744;28;20502;-66
2023/01/07 03:16:12;;;;;;;1.43;1.07;;;1.40;99.90;2.10;97350.00;;;;5028707;28;20558;-66
2023/01/07 03:19:07;;;;;;;1.40;1.30;;;1.30;99.90;1.80;97358.00;;;;5028565;28;20424;-66
2023/01/07 03:21:57;;;;;;;2.00;1.70;;;1.40;99.90;1.90;97350.00;;;;5029584;28;20529;-66
2023/01/07 03:24:49;;;;;;;2.20;1.67;;;1.20;99.90;2.10;97358.00;;;;5030113;28;20447;-66
2023/01/07 03:27:38;;;;;;;2.20;1.80;;;1.10;99.90;1.90;97357.00;;;;5029248;28;20444;-66
2023/01/07 03:30:29;;;;;;;2.13;1.47;;;1.20;99.90;2.00;97349.00;;;;5029373;28;21164;-67
2023/01/07 03:33:25;;;;;;;3.47;1.90;;;1.00;99.90;1.60;97348.00;;;;5033726;28;20521;-67
2023/01/07 03:36:21;;;;;;;2.03;1.67;;;0.90;99.90;1.50;97350.00;;;;5023434;28;20421;-67
2023/01/07 03:39:11;;;;;;;1.30;1.20;;;0.70;99.90;1.60;97366.00;;;;5027604;28;20428;-67
2023/01/07 03:45:10;;;;;;;0.93;0.90;;;1.00;99.90;1.70;97359.00;;;;5028507;28;20780;-67
2023/01/07 03:47:58;;;;;;;1.03;1.03;;;0.90;99.90;1.70;97358.00;;;;5029816;28;20425;-66
2023/01/07 03:50:47;;;;;;;1.97;1.70;;;0.90;99.90;1.80;97359.00;;;;5029272;28;20613;-66
2023/01/07 03:53:37;;;;;;;1.27;1.17;;;0.90;99.90;2.00;97352.00;;;;5028926;28;20444;-67
2023/01/07 03:56:26;;;;;;;2.13;1.70;;;0.90;99.90;1.80;97354.00;;;;5029277;28;20486;-66
2023/01/07 03:59:14;;;;;;;1.70;1.40;;;0.90;99.90;1.80;97354.00;;;;5028971;28;20846;-66
2023/01/07 04:02:03;;;;;;;1.70;1.60;;;0.90;99.90;1.80;97354.00;;;;5028622;28;20483;-66
2023/01/07 04:04:52;;;;;;;1.20;1.13;;;0.90;99.90;1.70;97359.00;;;;5029754;28;20463;-67
2023/01/07 04:07:41;;;;;;;0.80;0.80;;;0.70;99.90;1.80;97354.00;;;;5026270;28;20478;-67
2023/01/07 04:10:31;;;;;;;3.80;1.57;;;0.90;99.90;1.50;97350.00;;;;5028523;28;20420;-67
2023/01/07 04:13:19;;;;;;;1.40;1.30;;;0.60;99.90;1.30;97347.00;;;;5023707;28;20827;-67
2023/01/07 04:16:08;;;;;;;1.60;1.27;;;0.70;99.90;1.00;97342.00;;;;5028768;28;20475;-67
2023/01/07 04:18:57;;;;;;;2.17;2.07;;;0.50;99.90;1.00;97349.00;;;;5029358;28;20463;-67
2023/01/07 04:21:46;;;;;;;1.00;0.90;;;0.40;99.90;0.90;97343.00;;;;5029600;28;20540;-67
2023/01/07 04:24:34;;;;;;;1.47;1.37;;;0.40;99.90;1.00;97344.00;;;;5028430;28;20436;-67
2023/01/07 04:27:24;;;;;;;1.50;1.27;;;0.30;99.90;1.40;97339.00;;;;5028640;28;20425;-67
2023/01/07 04:30:13;;;;;;;1.30;1.30;;;0.40;99.90;1.40;97351.00;;;;5032697;28;20847;-67
2023/01/07 04:33:02;;;;;;;2.40;1.57;;;0.50;99.90;1.40;97352.00;;;;5028138;28;20479;-67
2023/01/07 04:35:51;;;;;;;1.90;1.80;;;0.40;99.90;1.40;97341.00;;;;5032258;28;20986;-68
2023/01/07 04:38:40;;;;;;;1.83;1.73;;;0.50;99.90;1.50;97349.00;;;;5032249;28;20424;-68
2023/01/07 04:41:28;;;;;;;2.00;1.83;;;0.60;99.90;1.40;97348.00;;;;5031346;28;20464;-67
2023/01/07 04:44:18;;;;;;;2.33;2.13;;;0.80;99.90;1.10;97348.00;;;;5032588;28;20475;-67
2023/01/07 04:47:07;;;;;;;1.70;1.23;;;0.00;99.90;1.20;97352.00;;;;5032731;28;21001;-67
2023/01/07 04:49:56;;;;;;;4.37;1.17;;;0.40;99.90;0.90;97349.00;;;;5031059;28;20466;-67
2023/01/07 04:52:44;;;;;;;1.17;1.07;;;0.40;99.90;0.70;97329.00;;;;5031695;28;20440;-68
2023/01/07 04:55:33;;;;;;;1.30;1.20;;;0.10;99.90;0.60;97339.00;;;;5032611;28;20428;-66
2023/01/07 04:58:22;;;;;;;2.60;1.50;;;0.30;99.90;0.60;97335.00;;;;5026245;28;20440;-67
2023/01/07 05:01:12;;;;;;;1.50;1.23;;;0.00;99.90;0.70;97325.00;;;;5030449;28;20497;-68
2023/01/07 05:04:01;;;;;;;0.40;0.40;;;0.00;99.90;0.60;97337.00;;;;5031378;28;20518;-69
2023/01/07 05:06:50;;;;;;;4.50;2.40;;;-0.10;99.90;0.80;97334.00;;;;5025922;28;20420;-66
2023/01/07 05:09:38;;;;;;;2.77;2.50;;;-0.10;99.90;1.00;97332.00;;;;5023722;28;20436;-67
2023/01/07 05:12:27;;;;;;;6.80;2.53;;;0.30;99.90;1.20;97333.00;;;;5024842;28;20432;-67
2023/01/07 05:15:16;;;;;;;2.53;1.67;;;;;1.10;97330.00;;;;5031024;28;20970;-66
2023/01/07 05:18:07;;;;;;;2.77;2.10;;;0.40;99.90;1.00;97343.00;;;;5028016;28;20433;-68
2023/01/07 05:20:55;;;;;;;2.63;2.00;;;0.40;99.90;1.40;97346.00;;;;5032385;28;20451;-68
2023/01/07 05:23:44;;;;;;;2.80;1.63;;;0.40;99.90;1.40;97342.00;;;;5031617;28;20872;-65
2023/01/07 05:26:33;;;;;;;2.47;2.27;;;0.50;99.90;1.10;97334.00;;;;5031250;28;20534;-68
2023/01/07 05:29:22;;;;;;;1.60;1.50;;;0.40;99.90;0.60;97334.00;;;;5029371;28;20888;-67
2023/01/07 05:32:10;;;;;;;2.83;1.33;;;0.30;99.90;0.40;97338.00;;;;5037275;28;20459;-67
2023/01/07 05:35:00;;;;;;;1.53;1.43;;;0.40;99.90;0.50;97332.00;;;;5027671;28;20440;-67
2023/01/07 05:37:49;;;;;;;1.20;1.20;;;0.00;99.90;0.50;97335.00;;;;5031000;28;20927;-68
2023/01/07 05:40:38;;;;;;;5.20;2.67;;;-0.10;99.90;0.70;97339.00;;;;5029781;28;20440;-67
2023/01/07 05:43:26;;;;;;;0.87;0.87;;;0.00;99.90;0.80;97340.00;;;;5030466;28;20511;-70
2023/01/07 05:46:15;;;;;;;2.67;2.17;;;0.00;99.90;1.00;97338.00;;;;5031330;28;20428;-67
2023/01/07 05:49:04;;;;;;;4.13;2.20;;;0.20;99.90;0.90;97337.00;;;;5029462;28;20440;-69
2023/01/07 05:51:54;;;;;;;1.30;1.20;;;0.20;99.90;0.30;97337.00;;;;5025199;28;20466;-72
2023/01/07 05:54:43;;;;;;;1.57;1.47;;;0.10;99.90;0.50;97337.00;;;;5030375;28;20443;-68
2023/01/07 05:57:32;;;;;;;0.87;0.87;;;-0.10;99.90;0.30;97340.00;;;;5030900;28;20943;-71
2023/01/07 06:00:21;;;;;;;0.87;0.87;;;0.00;99.90;-0.10;97326.00;;;;5029951;28;20424;-72
2023/01/07 06:03:09;;;;;;;1.60;1.50;;;-0.20;99.90;0.10;97331.00;;;;5019127;28;20495;-67
2023/01/07 06:06:05;;;;;;;3.13;1.93;;;-0.30;99.90;0.40;97329.00;;;;5025306;28;20433;-68
2023/01/07 06:08:55;;;;;;;2.30;1.20;;;-0.30;99.90;0.70;97334.00;;;;5029679;28;20424;-67
2023/01/07 06:11:44;;;;;;;2.73;2.53;;;-0.20;99.90;1.00;97339.00;;;;5027649;28;20511;-67
2023/01/07 06:14:33;;;;;;;3.43;2.10;;;-0.10;99.90;1.10;97332.00;;;;5018814;28;20792;-67
2023/01/07 06:17:22;;;;;;;3.47;2.47;;;0.10;99.90;1.30;97337.00;;;;5030181;28;20506;-66
2023/01/07 06:20:13;;;;;;;2.60;2.23;;;0.20;99.90;1.40;97335.00;;;;5030531;28;20510;-68
2023/01/07 06:23:03;;;;;;;8.43;2.30;;;0.30;99.90;1.40;97326.00;;;;5027821;28;20486;-68
2023/01/07 06:25:54;;;;;;;1.83;1.73;;;0.30;99.90;1.40;97333.00;;;;5029653;28;20428;-67
2023/01/07 06:28:42;;;;;;;1.30;1.20;;;0.40;99.90;0.80;97322.00;;;;5028810;28;20420;-66
2023/01/07 06:31:31;;;;;;;1.87;1.50;;;0.20;99.90;0.60;97317.00;;;;5029808;28;20408;-67
2023/01/07 06:34:20;;;;;;;1.70;1.60;;;0.20;99.90;0.90;97325.00;;;;5029867;28;21006;-67
2023/01/07 06:37:09;;;;;;;1.97;1.87;;;0.20;99.90;1.10;97331.00;;;;5026418;28;20436;-67
2023/01/07 06:39:58;;;;;;;2.50;2.07;;;0.20;99.90;1.10;97325.00;;;;5027549;28;21244;-66
2023/01/07 06:42:48;;;;;;;2.23;1.63;;;0.30;99.90;1.00;97324.00;;;;5024944;28;20460;-67
2023/01/07 06:45:36;;;;;;;2.53;2.10;;;0.20;99.90;0.90;97321.00;;;;5027161;28;20424;-67
2023/01/07 06:48:27;;;;;;;2.43;1.97;;;0.40;99.90;1.30;97320.00;;;;5027000;28;20421;-66
2023/01/07 06:51:16;;;;;;;2.50;2.30;;;0.20;99.90;1.20;97320.00;;;;5028283;28;20427;-67
2023/01/07 06:54:05;;;;;;;4.97;3.23;;;0.30;99.90;1.50;97332.00;;;;5027086;28;20475;-67
2023/01/07 06:56:53;;;;;;;1.53;1.43;;;0.40;99.90;1.10;97331.00;;;;5028338;28;20459;-67
2023/01/07 06:59:43;;;;;;;2.40;2.20;;;0.40;99.90;0.90;97333.00;;;;5025724;28;20448;-67
2023/01/07 07:02:32;;;;;;;2.23;1.60;;;0.30;99.90;0.90;97333.00;;;;5027113;28;20467;-66
2023/01/07 07:05:21;;;;;;;3.00;2.60;;;0.20;99.90;0.80;97325.00;;;;5033041;28;20489;-67
2023/01/07 07:08:10;;;;;;;3.43;2.60;;;0.20;99.90;0.50;97326.00;;;;5026648;28;20482;-68
2023/01/07 07:10:58;;;;;;;1.70;1.60;;;0.10;99.90;0.30;97317.00;;;;5026928;28;20457;-72
2023/01/07 07:13:47;;;;;;;7.67;4.60;;;0.00;99.90;0.30;97322.00;;;;5025558;28;20467;-71
2023/01/07 07:16:37;;;;;;;2.33;2.20;;;-0.10;99.90;0.40;97318.00;;;;5026349;28;20439;-67
2023/01/07 07:19:26;;;;;;;1.77;1.67;;;-0.10;99.90;0.20;97320.00;;;;5026764;28;20440;-69
2023/01/07 07:22:15;;;;;;;2.53;2.33;;;-0.10;99.90;0.80;97329.00;;;;5026615;28;20420;-68
2023/01/07 07:25:05;;;;;;;4.07;3.67;;;0.00;99.90;1.20;97332.00;;;;5026467;28;20451;-67
2023/01/07 07:27:53;;;;;;;2.67;2.47;;;0.20;99.90;1.40;97325.00;;;;5026166;28;20514;-67
2023/01/07 07:30:42;;;;;;;6.33;3.27;;;0.30;99.90;1.60;97326.00;;;;5026106;28;20444;-68
2023/01/07 07:33:32;;;;;;;7.23;4.27;;;0.50;99.90;1.60;97322.00;;;;5026729;28;20453;-70
2023/01/07 07:36:21;;;;;;;4.90;3.20;;;0.70;99.90;1.70;97329.00;;;;5027985;28;20449;-67
2023/01/07 07:39:11;;;;;;;4.57;4.03;;;0.80;99.90;2.00;97332.00;;;;5025499;28;20439;-68
2023/01/07 07:42:03;;;;;;;5.70;4.27;;;1.20;99.90;1.90;97336.00;;;;5024504;28;20463;-68
2023/01/07 07:44:52;;;;;;;3.33;3.03;;;1.00;99.90;1.90;97320.00;;;;5026362;28;20467;-67
2023/01/07 07:47:40;;;;;;;4.07;2.07;;;1.00;99.90;1.40;97324.00;;;;5026142;28;20452;-69
2023/01/07 07:50:30;;;;;;;2.80;1.90;;;0.90;99.90;1.50;97327.00;;;;5028146;28;20971;-68
2023/01/07 07:53:19;;;;;;;2.50;2.30;;;0.90;99.90;1.60;97331.00;;;;5026959;28;20476;-67
2023/01/07 07:56:09;;;;;;;3.00;2.47;;;0.90;99.90;2.00;97320.00;;;;5024377;28;20948;-67
2023/01/07 07:58:57;;;;;;;3.00;2.33;;;0.90;99.90;1.80;97309.00;;;;5027382;28;20456;-66
2023/01/07 08:01:46;;;;;;;9.17;5.57;;;1.00;99.90;2.00;97323.00;;;;5028954;28;20421;-69
2023/01/07 08:04:35;;;;;;;3.30;1.50;;;1.10;99.90;1.60;97319.00;;;;5030483;28;20499;-69
2023/01/07 08:07:26;;;;;;;5.97;4.30;;;1.10;99.90;1.80;97313.00;;;;5030584;28;20514;-67
2023/01/07 08:10:15;;;;;;;3.07;2.13;;;1.10;99.90;1.70;97313.00;;;;5029525;28;20443;-67
2023/01/07 08:13:04;;;;;;;4.60;3.27;;;1.10;99.90;2.30;97314.00;;;;5029993;28;20605;-67
2023/01/07 08:15:54;;;;;;;5.80;4.00;;;1.30;99.90;2.20;97319.00;;;;5029819;28;20436;-67
2023/01/07 08:18:43;;;;;;;4.43;4.03;;;1.30;99.90;2.40;97318.00;;;;5030469;28;20424;-67
2023/01/07 08:21:32;;;;;;;2.73;2.53;;;1.40;99.90;2.60;97311.00;;;;5034003;28;20428;-68
2023/01/07 08:24:22;;;;;;;4.53;2.40;;;1.50;99.90;2.60;97310.00;;;;5032799;28;20485;-67
2023/01/07 08:27:10;;;;;;;1.50;1.40;;;1.80;99.90;2.50;97303.00;;;;5030518;28;20436;-67
2023/01/07 08:29:59;;;;;;;2.87;2.37;;;1.90;99.90;2.40;97303.00;;;;5029277;28;20439;-68
2023/01/07 08:32:48;;;;;;;2.77;2.27;;;1.60;99.90;2.40;97309.00;;;;5024792;28;20939;-67
2023/01/07 08:35:37;;;;;;;1.97;1.83;;;1.60;99.90;2.50;97305.00;;;;5024862;28;21595;-67
2023/01/07 08:38:27;;;;;;;2.50;2.13;;;1.60;99.90;2.80;97315.00;;;;5029404;28;20437;-68
2023/01/07 08:41:18;;;;;;;5.77;3.00;;;1.70;99.90;3.00;97308.00;;;;5025198;28;20456;-68
2023/01/07 08:44:07;;;;;;;4.67;3.87;;;1.80;99.90;3.20;97292.00;;;;5030665;28;20549;-68
2023/01/07 08:46:55;;;;;;;5.20;4.17;;;1.90;99.90;3.10;97291.00;;;;5030631;28;20448;-67
2023/01/07 08:49:44;;;;;;;7.07;6.13;;;2.20;99.90;3.30;97300.00;;;;5026368;28;20436;-68
2023/01/07 08:52:33;;;;;;;8.17;7.13;;;2.20;99.90;3.70;97300.00;;;;5025177;28;20443;-67
2023/01/07 08:55:22;;;;;;;7.30;5.77;;;2.30;99.90;3.80;97300.00;;;;5030150;28;20524;-67
2023/01/07 08:58:13;;;;;;;3.10;2.80;;;2.40;99.90;3.50;97295.00;;;;5028248;28;20848;-68
2023/01/07 09:01:04;;;;;;;4.97;3.07;;;2.50;99.90;3.50;97291.00;;;;5023841;28;20455;-67
2023/01/07 09:03:53;;;;;;;3.67;3.37;;;2.50;99.90;3.30;97298.00;;;;5024119;28;20460;-68
2023/01/07 09:06:42;;;;;;;2.83;2.63;;;2.50;99.90;3.40;97301.00;;;;5029532;28;20794;-67
2023/01/07 09:09:31;;;;;;;3.57;3.27;;;2.50;99.90;3.80;97300.00;;;;5030239;28;20440;-67
2023/01/07 09:12:19;;;;;;;3.87;2.60;;;2.60;99.90;3.80;97302.00;;;;5024905;28;20464;-67
2023/01/07 09:15:12;;;;;;;8.80;6.30;;;2.70;99.90;4.00;97308.00;;;;5031283;28;20441;-67
2023/01/07 09:18:02;;;;;;;44.07;22.93;;;2.70;99.90;3.90;97295.00;;;;5030631;28;20451;-67
2023/01/07 09:20:51;;;;;;;18.33;13.43;;;2.80;99.90;4.10;97298.00;;;;5031999;28;20436;-67
2023/01/07 09:23:40;;;;;;;7.20;6.03;;;2.90;99.90;4.10;97294.00;;;;5030479;28;20468;-67
2023/01/07 09:26:28;;;;;;;7.37;5.20;;;3.00;99.90;4.10;97298.00;;;;5031721;28;20923;-68
2023/01/07 09:29:17;;;;;;;5.47;4.17;;;3.00;99.90;4.30;97296.00;;;;5030241;28;20474;-66
2023/01/07 09:32:07;;;;;;;5.67;5.17;;;3.10;99.90;4.30;97293.00;;;;5033203;28;20796;-66
2023/01/07 09:34:56;;;;;;;4.60;4.20;;;3.20;99.90;4.50;97296.00;;;;5028299;28;20959;-66
2023/01/07 09:37:45;;;;;;;7.30;5.00;;;3.30;99.90;4.60;97301.00;;;;5031100;28;21319;-66
2023/01/07 09:40:39;;;;;;;5.90;4.60;;;3.30;99.90;4.60;97308.00;;;;5030094;28;20482;-66
2023/01/07 09:43:35;;;;;;;6.70;4.07;;;3.40;99.90;4.70;97309.00;;;;5031876;28;20452;-67
2023/01/07 09:46:24;;;;;;;6.50;4.77;;;3.50;99.90;4.90;97300.00;;;;5031895;28;20437;-67
2023/01/07 09:49:18;;;;;;;8.73;5.53;;;3.60;99.90;5.10;97306.00;;;;5019858;28;20440;-66
2023/01/07 09:52:12;;;;;;;9.23;5.07;;;3.70;99.90;5.20;97300.00;;;;5031106;28;20425;-67
2023/01/07 09:55:08;;;;;;;7.77;4.87;;;3.80;99.90;5.20;97297.00;;;;5031219;28;20263;-67
2023/01/07 09:57:57;;;;;;;9.17;6.50;;;3.90;99.90;5.50;97302.00;;;;5030734;28;20428;-67
2023/01/07 10:01:06;;;;;;;6.67;5.40;;;4.00;99.90;5.70;97284.00;;;;5029184;28;20448;-66
2023/01/07 10:04:19;;;;;;;8.47;6.10;;;4.10;99.90;5.70;97279.00;;;;5025319;28;20491;-67
2023/01/07 10:07:24;;;;;;;10.70;6.37;;;4.20;99.90;5.70;97279.00;;;;5030574;28;20421;-67
2023/01/07 10:10:20;;;;;;;6.93;6.03;;;4.30;99.90;5.60;97270.00;;;;5030941;28;20209;-67
2023/01/07 10:13:39;;;;;;;17.57;13.50;;;4.40;99.90;5.70;97263.00;;;;5028703;28;20221;-67
2023/01/07 10:16:37;;;;;;;12.03;8.10;;;4.40;99.90;5.90;97264.00;;;;5030865;28;20213;-67
2023/01/07 10:19:38;;;;;;;10.97;7.50;;;4.50;99.90;6.10;97259.00;;;;5030063;28;20216;-67
2023/01/07 10:22:34;;;;;;;8.73;7.10;;;6.20;99.90;6.20;97248.00;;;;5029703;28;20204;-67
2023/01/07 10:25:28;;;;;;;13.40;7.87;;;6.30;99.90;6.30;97242.00;;;;5030811;28;20641;-66
2023/01/07 10:28:37;;;;;;;9.17;7.07;;;4.80;99.90;6.50;97234.00;;;;5030556;28;20243;-66
2023/01/07 10:31:28;;;;;;;9.90;6.20;;;5.00;99.90;6.70;97237.00;;;;5019951;28;20208;-66
2023/01/07 10:34:22;;;;;;;11.03;7.83;;;5.10;99.90;6.70;97232.00;;;;5030142;28;20606;-66
2023/01/07 10:37:22;;;;;;;10.97;7.83;;;5.20;99.90;6.60;97231.00;;;;5027857;28;20208;-66
2023/01/07 10:40:30;;;;;;;8.77;7.27;;;5.20;99.90;6.70;97227.00;;;;5026992;28;20209;-66
2023/01/07 10:43:41;;;;;;;12.47;7.57;;;5.30;99.90;7.10;97235.00;;;;5030033;28;20715;-66
2023/01/07 10:46:46;;;;;;;10.40;7.73;;;5.40;99.90;7.10;97231.00;;;;5028846;28;20599;-66
2023/01/07 10:49:57;;;;;;;12.53;8.67;;;5.50;99.90;7.00;97223.00;;;;5029448;28;20208;-66
2023/01/07 10:52:56;;;;;;;12.03;8.40;;;5.60;99.90;7.20;97224.00;;;;5029705;28;20280;-66
2023/01/07 10:55:54;;;;;;;10.90;7.60;;;5.70;99.90;7.40;97208.00;;;;5030280;28;20320;-66
2023/01/07 10:58:46;;;;;;;12.83;7.53;;;5.80;99.90;7.60;97204.00;;;;5029922;28;20209;-66
2023/01/07 11:01:37;;;;;;;11.17;8.23;;;5.80;99.90;7.60;97207.00;;;;5030044;28;20234;-66
2023/01/07 11:04:27;;;;;;;14.67;7.60;;;5.90;99.90;7.30;97198.00;;;;5029767;28;20244;-66
2023/01/07 11:07:27;;;;;;;9.63;7.63;;;5.90;99.90;7.40;97188.00;;;;5029374;28;20198;-66
2023/01/07 11:10:23;;;;;;;12.33;7.07;;;6.00;99.90;7.60;97187.00;;;;5027992;28;20201;-66
2023/01/07 11:13:16;;;;;;;17.80;8.53;;;6.00;99.90;7.50;97179.00;;;;5024916;28;20290;-66
2023/01/07 11:16:10;;;;;;;10.30;7.10;;;6.00;99.90;7.20;97169.00;;;;5024649;28;20210;-66
2023/01/07 11:19:04;;;;;;;9.70;6.87;;;6.00;99.90;7.60;97163.00;;;;5022940;28;20598;-66
2023/01/07 11:21:52;;;;;;;11.10;7.43;;;6.10;99.90;7.90;97162.00;;;;5027824;28;20715;-66
2023/01/07 11:24:41;;;;;;;9.27;6.77;;;6.10;99.90;8.00;97154.00;;;;5032917;28;20236;-65
2023/01/07 11:27:34;;;;;;;10.10;6.47;;;6.20;99.90;7.90;97159.00;;;;5036218;28;20205;-66
2023/01/07 11:30:27;;;;;;;13.53;6.63;;;6.30;99.90;7.90;97154.00;;;;5036453;28;20200;-66
2023/01/07 11:33:25;;;;;;;11.10;7.23;;;6.40;99.90;8.00;97149.00;;;;5035821;28;20258;-66
2023/01/07 11:36:14;;;;;;;9.57;6.80;;;6.40;99.90;8.10;97148.00;;;;5035924;28;20205;-66
2023/01/07 11:39:11;;;;;;;8.83;6.50;;;6.40;99.90;8.30;97133.00;;;;5027899;28;20201;-66
2023/01/07 11:42:37;;;;;;;10.40;8.20;;;6.60;99.90;8.50;97135.00;;;;5028365;28;20204;-66
2023/01/07 11:45:20;;;;;;;10.50;7.67;;;6.60;99.90;8.60;97129.00;;;;5028036;28;20221;-66
2023/01/07 11:48:17;;;;;;;19.40;7.20;;;6.80;99.90;8.70;97123.00;;;;5026062;28;20189;-66
2023/01/07 11:51:09;;;;;;;10.80;6.97;;;6.80;99.90;8.80;97115.00;;;;5024918;28;20764;-66
2023/01/07 11:54:00;;;;;;;12.40;7.10;;;6.90;99.90;8.60;97107.00;;;;5026100;28;20221;-66
2023/01/07 11:56:49;;;;;;;9.53;7.37;;;7.00;99.90;8.40;97106.00;;;;5029218;28;20201;-66
2023/01/07 11:59:37;;;;;;;13.37;7.80;;;7.00;99.90;8.60;97102.00;;;;5025833;28;20201;-66
2023/01/07 12:02:27;;;;;;;10.93;6.90;;;7.10;99.90;8.60;97095.00;;;;5025502;28;20707;-66
2023/01/07 12:05:21;;;;;;;11.77;7.40;;;7.10;99.90;8.70;97097.00;;;;5029207;28;20225;-66
2023/01/07 12:08:21;;;;;;;8.20;7.03;;;7.20;99.90;8.70;97081.00;;;;5027661;28;20214;-66
2023/01/07 12:11:13;;;;;;;10.07;7.83;;;7.20;99.90;8.70;97079.00;;;;5026732;28;20220;-66
2023/01/07 12:14:08;;;;;;;9.57;7.50;;;7.30;99.90;9.10;97076.00;;;;5026871;28;20228;-66
2023/01/07 12:17:10;;;;;;;8.20;6.83;;;7.40;99.90;9.20;97071.00;;;;5024571;28;20228;-66
2023/01/07 12:20:35;;;;;;;12.17;6.93;;;7.50;99.90;9.30;97065.00;;;;5027728;28;20204;-66
2023/01/07 12:23:40;;;;;;;15.87;6.93;;;7.50;99.90;9.30;97074.00;;;;5028234;28;20226;-66
2023/01/07 12:26:37;;;;;;;8.60;6.10;;;7.60;99.90;9.20;97059.00;;;;5026254;28;20221;-66
2023/01/07 12:29:40;;;;;;;9.90;7.73;;;7.70;99.90;9.40;97052.00;;;;5026938;28;20597;-66
2023/01/07 12:32:44;;;;;;;10.13;7.37;;;7.70;99.90;9.00;97052.00;;;;5027211;28;20212;-66
2023/01/07 12:35:40;;;;;;;17.03;9.03;;;7.70;99.90;8.80;97042.00;;;;5028007;28;20205;-66
2023/01/07 12:38:42;;;;;;;16.40;10.27;;;7.60;99.90;9.00;97038.00;;;;5026394;28;20587;-66
2023/01/07 12:41:36;;;;;;;12.57;8.77;;;7.60;99.90;9.40;97044.00;;;;5026992;28;20205;-66
2023/01/07 12:44:25;;;;;;;10.23;7.80;;;7.70;99.90;9.50;97037.00;;;;5025517;28;20276;-66
2023/01/07 12:47:18;;;;;;;9.83;6.83;;;7.80;99.90;9.40;97032.00;;;;5023705;28;20712;-66
2023/01/07 12:50:13;;;;;;;10.97;6.77;;;7.90;99.90;9.60;97015.00;;;;5027589;28;20201;-67
2023/01/07 12:53:12;;;;;;;7.80;6.30;;;7.90;99.90;10.10;97003.00;;;;5032580;28;20217;-66
2023/01/07 12:56:07;;;;;;;8.90;6.63;;;8.10;99.90;10.60;96991.00;;;;5031632;28;20209;-66
2023/01/07 12:59:00;;;;;;;11.30;5.97;;;8.40;99.90;11.20;96998.00;;;;5031505;28;20678;-66
2023/01/07 13:01:55;;;;;;;9.30;6.83;;;8.80;99.90;11.40;97003.00;;;;5029508;28;20294;-66
2023/01/07 13:04:56;;;;;;;10.10;6.87;;;9.20;99.90;11.10;96988.00;;;;5031461;28;20287;-66